sensor_id;sensor_type;location;lat;lon;timestamp;pressure;altitude;pressure_sealevel;temperature;humidity
706;BME280;21234;48.690;9.016;2023-03-13T00:02:19;95648.88;;;7.87;81.32
706;BME280;21234;48.690;9.016;2023-03-13T00:04:46;95648.88;;;7.87;81.43
706;BME280;21234;48.690;9.016;2023-03-13T00:07:14;95642.31;;;7.83;81.79
706;BME280;21234;48.690;9.016;2023-03-13T00:09:41;95633.06;;;7.79;81.77
706;BME280;21234;48.690;9.016;2023-03-13T00:12:08;95640.38;;;7.78;81.94
706;BME280;21234;48.690;9.016;2023-03-13T00:14:35;95642.50;;;7.76;82.14
706;BME280;21234;48.690;9.016;2023-03-13T00:17:01;95642.50;;;7.76;82.52
706;BME280;21234;48.690;9.016;2023-03-13T00:19:28;95641.44;;;7.77;82.88
706;BME280;21234;48.690;9.016;2023-03-13T00:21:54;95636.03;;;7.77;83.47
706;BME280;21234;48.690;9.016;2023-03-13T00:24:22;95637.09;;;7.76;83.35
706;BME280;21234;48.690;9.016;2023-03-13T00:26:49;95637.59;;;7.73;82.23
706;BME280;21234;48.690;9.016;2023-03-13T00:29:16;95640.63;;;7.77;82.67
706;BME280;21234;48.690;9.016;2023-03-13T00:31:42;95637.09;;;7.76;83.44
706;BME280;21234;48.690;9.016;2023-03-13T00:34:09;95637.09;;;7.76;82.86
706;BME280;21234;48.690;9.016;2023-03-13T00:36:36;95630.84;;;7.75;82.71
706;BME280;21234;48.690;9.016;2023-03-13T00:39:04;95631.09;;;7.74;82.40
706;BME280;21234;48.690;9.016;2023-03-13T00:41:33;95635.13;;;7.71;83.21
706;BME280;21234;48.690;9.016;2023-03-13T00:43:59;95636.44;;;7.69;82.52
706;BME280;21234;48.690;9.016;2023-03-13T00:46:28;95627.25;;;7.70;82.61
706;BME280;21234;48.690;9.016;2023-03-13T00:48:55;95627.25;;;7.70;82.53
706;BME280;21234;48.690;9.016;2023-03-13T00:51:25;95618.56;;;7.68;82.73
706;BME280;21234;48.690;9.016;2023-03-13T00:53:53;95618.06;;;7.71;82.75
706;BME280;21234;48.690;9.016;2023-03-13T00:56:20;95618.06;;;7.71;82.19
706;BME280;21234;48.690;9.016;2023-03-13T00:58:49;95608.66;;;7.73;81.80
706;BME280;21234;48.690;9.016;2023-03-13T01:01:18;95612.50;;;7.78;81.64
706;BME280;21234;48.690;9.016;2023-03-13T01:03:47;95605.19;;;7.78;81.18
706;BME280;21234;48.690;9.016;2023-03-13T01:06:18;95598.44;;;7.81;81.02
706;BME280;21234;48.690;9.016;2023-03-13T01:08:45;95600.84;;;7.77;81.26
706;BME280;21234;48.690;9.016;2023-03-13T01:11:14;95594.03;;;7.74;81.37
706;BME280;21234;48.690;9.016;2023-03-13T01:13:41;95592.16;;;7.75;81.75
706;BME280;21234;48.690;9.016;2023-03-13T01:16:12;95582.91;;;7.71;81.42
706;BME280;21234;48.690;9.016;2023-03-13T01:18:41;95579.63;;;7.69;81.83
706;BME280;21234;48.690;9.016;2023-03-13T01:21:08;95574.47;;;7.67;81.99
706;BME280;21234;48.690;9.016;2023-03-13T01:23:34;95569.78;;;7.63;82.14
706;BME280;21234;48.690;9.016;2023-03-13T01:26:03;95569.53;;;7.64;82.44
706;BME280;21234;48.690;9.016;2023-03-13T01:28:30;95564.63;;;7.61;82.80
706;BME280;21234;48.690;9.016;2023-03-13T01:30:58;95556.00;;;7.64;82.58
706;BME280;21234;48.690;9.016;2023-03-13T01:33:26;95556.91;;;7.70;82.42
706;BME280;21234;48.690;9.016;2023-03-13T01:36:00;95549.88;;;7.69;82.48
706;BME280;21234;48.690;9.016;2023-03-13T01:38:26;95547.72;;;7.71;81.79
706;BME280;21234;48.690;9.016;2023-03-13T01:40:54;95542.88;;;7.73;81.94
706;BME280;21234;48.690;9.016;2023-03-13T01:43:22;95540.19;;;7.73;81.79
706;BME280;21234;48.690;9.016;2023-03-13T01:45:56;95537.22;;;7.74;81.85
706;BME280;21234;48.690;9.016;2023-03-13T01:48:29;95526.66;;;7.73;81.58
706;BME280;21234;48.690;9.016;2023-03-13T01:50:59;95516.09;;;7.71;81.47
706;BME280;21234;48.690;9.016;2023-03-13T01:53:28;95511.50;;;7.72;81.60
706;BME280;21234;48.690;9.016;2023-03-13T01:55:58;95520.19;;;7.74;81.36
706;BME280;21234;48.690;9.016;2023-03-13T01:58:27;95509.94;;;7.76;81.00
706;BME280;21234;48.690;9.016;2023-03-13T02:00:54;95502.38;;;7.78;80.82
706;BME280;21234;48.690;9.016;2023-03-13T02:03:21;95497.78;;;7.79;80.87
706;BME280;21234;48.690;9.016;2023-03-13T02:05:49;95492.09;;;7.80;80.66
706;BME280;21234;48.690;9.016;2023-03-13T02:08:19;95492.91;;;7.81;80.63
706;BME280;21234;48.690;9.016;2023-03-13T02:10:50;95487.00;;;7.84;80.78
706;BME280;21234;48.690;9.016;2023-03-13T02:13:19;95489.78;;;7.89;80.43
706;BME280;21234;48.690;9.016;2023-03-13T02:15:46;95491.09;;;7.86;80.62
706;BME280;21234;48.690;9.016;2023-03-13T02:18:14;95495.44;;;7.87;80.86
706;BME280;21234;48.690;9.016;2023-03-13T02:20:41;95486.81;;;7.90;81.11
706;BME280;21234;48.690;9.016;2023-03-13T02:23:13;95486.06;;;7.95;81.21
706;BME280;21234;48.690;9.016;2023-03-13T02:25:45;95480.91;;;7.93;81.04
706;BME280;21234;48.690;9.016;2023-03-13T02:28:16;95479.31;;;7.97;81.38
706;BME280;21234;48.690;9.016;2023-03-13T02:30:45;95479.06;;;7.99;81.57
706;BME280;21234;48.690;9.016;2023-03-13T02:33:13;95471.38;;;8.13;81.29
706;BME280;21234;48.690;9.016;2023-03-13T02:35:40;95466.25;;;8.16;81.33
706;BME280;21234;48.690;9.016;2023-03-13T02:38:10;95463.63;;;8.21;81.90
706;BME280;21234;48.690;9.016;2023-03-13T02:40:41;95456.88;;;8.24;81.53
706;BME280;21234;48.690;9.016;2023-03-13T02:43:14;95452.84;;;8.26;81.24
706;BME280;21234;48.690;9.016;2023-03-13T02:45:41;95451.50;;;8.29;81.46
706;BME280;21234;48.690;9.016;2023-03-13T02:48:08;95440.00;;;8.38;81.35
706;BME280;21234;48.690;9.016;2023-03-13T02:50:35;95425.59;;;8.33;81.80
706;BME280;21234;48.690;9.016;2023-03-13T02:53:04;95419.91;;;8.34;82.53
706;BME280;21234;48.690;9.016;2023-03-13T02:55:37;95423.94;;;8.32;83.40
706;BME280;21234;48.690;9.016;2023-03-13T02:58:05;95421.22;;;8.32;83.21
706;BME280;21234;48.690;9.016;2023-03-13T03:00:33;95419.84;;;8.29;84.06
706;BME280;21234;48.690;9.016;2023-03-13T03:03:00;95414.16;;;8.31;83.58
706;BME280;21234;48.690;9.016;2023-03-13T03:05:27;95406.88;;;8.31;83.91
706;BME280;21234;48.690;9.016;2023-03-13T03:07:53;95398.00;;;8.36;83.58
706;BME280;21234;48.690;9.016;2023-03-13T03:10:20;95390.38;;;8.33;84.40
706;BME280;21234;48.690;9.016;2023-03-13T03:12:47;95388.50;;;8.33;83.85
706;BME280;21234;48.690;9.016;2023-03-13T03:15:13;95383.31;;;8.32;84.92
706;BME280;21234;48.690;9.016;2023-03-13T03:17:42;95371.91;;;8.30;85.05
706;BME280;21234;48.690;9.016;2023-03-13T03:20:09;95381.69;;;8.31;85.46
706;BME280;21234;48.690;9.016;2023-03-13T03:22:36;95373.81;;;8.29;85.53
706;BME280;21234;48.690;9.016;2023-03-13T03:25:06;95374.63;;;8.30;86.15
706;BME280;21234;48.690;9.016;2023-03-13T03:27:33;95378.28;;;8.40;85.97
706;BME280;21234;48.690;9.016;2023-03-13T03:30:01;95378.03;;;8.42;86.58
706;BME280;21234;48.690;9.016;2023-03-13T03:32:27;95379.66;;;8.43;86.78
706;BME280;21234;48.690;9.016;2023-03-13T03:34:56;95382.88;;;8.45;86.92
706;BME280;21234;48.690;9.016;2023-03-13T03:37:22;95382.94;;;8.50;86.75
706;BME280;21234;48.690;9.016;2023-03-13T03:39:49;95381.75;;;8.68;87.14
706;BME280;21234;48.690;9.016;2023-03-13T03:42:16;95379.84;;;8.68;87.30
706;BME280;21234;48.690;9.016;2023-03-13T03:44:42;95378.56;;;8.76;87.97
706;BME280;21234;48.690;9.016;2023-03-13T03:47:09;95377.56;;;8.92;89.29
706;BME280;21234;48.690;9.016;2023-03-13T03:49:36;95375.44;;;8.99;90.02
706;BME280;21234;48.690;9.016;2023-03-13T03:52:05;95385.28;;;9.16;90.58
706;BME280;21234;48.690;9.016;2023-03-13T03:54:32;95381.78;;;9.20;91.52
706;BME280;21234;48.690;9.016;2023-03-13T03:56:59;95387.00;;;9.27;91.66
706;BME280;21234;48.690;9.016;2023-03-13T03:59:26;95387.06;;;9.37;91.87
706;BME280;21234;48.690;9.016;2023-03-13T04:01:52;95385.16;;;9.42;91.92
706;BME280;21234;48.690;9.016;2023-03-13T04:04:19;95387.88;;;9.42;92.33
706;BME280;21234;48.690;9.016;2023-03-13T04:06:46;95391.69;;;9.47;93.28
706;BME280;21234;48.690;9.016;2023-03-13T04:09:14;95374.84;;;9.44;93.73
706;BME280;21234;48.690;9.016;2023-03-13T04:11:41;95376.81;;;9.54;94.10
706;BME280;21234;48.690;9.016;2023-03-13T04:14:07;95371.91;;;9.51;94.69
706;BME280;21234;48.690;9.016;2023-03-13T04:16:34;95376.53;;;9.56;94.99
706;BME280;21234;48.690;9.016;2023-03-13T04:19:01;95372.47;;;9.58;95.14
706;BME280;21234;48.690;9.016;2023-03-13T04:21:28;95363.78;;;9.56;95.17
706;BME280;21234;48.690;9.016;2023-03-13T04:23:54;95364.34;;;9.58;95.60
706;BME280;21234;48.690;9.016;2023-03-13T04:26:22;95362.16;;;9.55;95.93
706;BME280;21234;48.690;9.016;2023-03-13T04:28:49;95355.06;;;9.49;96.63
706;BME280;21234;48.690;9.016;2023-03-13T04:31:16;95369.16;;;9.46;97.07
706;BME280;21234;48.690;9.016;2023-03-13T04:33:42;95361.31;;;9.50;97.10
706;BME280;21234;48.690;9.016;2023-03-13T04:36:09;95362.09;;;9.45;97.59
706;BME280;21234;48.690;9.016;2023-03-13T04:38:36;95363.19;;;9.44;97.80
706;BME280;21234;48.690;9.016;2023-03-13T04:41:03;95350.69;;;9.43;98.09
706;BME280;21234;48.690;9.016;2023-03-13T04:43:32;95347.47;;;9.41;98.42
706;BME280;21234;48.690;9.016;2023-03-13T04:45:58;95349.38;;;9.40;98.75
706;BME280;21234;48.690;9.016;2023-03-13T04:48:25;95343.38;;;9.38;99.06
706;BME280;21234;48.690;9.016;2023-03-13T04:50:52;95351.22;;;9.35;99.06
706;BME280;21234;48.690;9.016;2023-03-13T04:53:18;95351.81;;;9.42;99.12
706;BME280;21234;48.690;9.016;2023-03-13T04:55:46;95347.19;;;9.37;99.12
706;BME280;21234;48.690;9.016;2023-03-13T04:58:13;95350.16;;;9.36;99.25
706;BME280;21234;48.690;9.016;2023-03-13T05:00:42;95347.44;;;9.36;99.57
706;BME280;21234;48.690;9.016;2023-03-13T05:03:08;95342.84;;;9.36;99.47
706;BME280;21234;48.690;9.016;2023-03-13T05:05:35;95345.03;;;9.39;99.36
706;BME280;21234;48.690;9.016;2023-03-13T05:08:02;95347.19;;;9.37;99.27
706;BME280;21234;48.690;9.016;2023-03-13T05:10:29;95348.28;;;9.41;99.32
706;BME280;21234;48.690;9.016;2023-03-13T05:12:56;95342.56;;;9.43;98.76
706;BME280;21234;48.690;9.016;2023-03-13T05:15:22;95338.25;;;9.47;98.48
706;BME280;21234;48.690;9.016;2023-03-13T05:17:51;95349.66;;;9.49;98.37
706;BME280;21234;48.690;9.016;2023-03-13T05:20:18;95355.06;;;9.49;98.59
706;BME280;21234;48.690;9.016;2023-03-13T05:22:44;95345.59;;;9.52;98.34
706;BME280;21234;48.690;9.016;2023-03-13T05:25:11;95345.34;;;9.58;97.47
706;BME280;21234;48.690;9.016;2023-03-13T05:27:38;95352.13;;;9.56;97.85
706;BME280;21234;48.690;9.016;2023-03-13T05:30:05;95349.13;;;9.57;97.39
706;BME280;21234;48.690;9.016;2023-03-13T05:32:32;95340.50;;;9.65;96.84
706;BME280;21234;48.690;9.016;2023-03-13T05:35:00;95345.91;;;9.65;96.67
706;BME280;21234;48.690;9.016;2023-03-13T05:37:27;95349.75;;;9.69;96.35
706;BME280;21234;48.690;9.016;2023-03-13T05:39:54;95339.97;;;9.73;95.90
706;BME280;21234;48.690;9.016;2023-03-13T05:42:21;95341.31;;;9.76;95.61
706;BME280;21234;48.690;9.016;2023-03-13T05:44:47;95336.44;;;9.73;95.93
706;BME280;21234;48.690;9.016;2023-03-13T05:47:14;95351.09;;;9.77;95.96
706;BME280;21234;48.690;9.016;2023-03-13T05:49:41;95342.13;;;9.76;96.13
706;BME280;21234;48.690;9.016;2023-03-13T05:52:09;95339.69;;;9.75;95.96
706;BME280;21234;48.690;9.016;2023-03-13T05:54:36;95331.56;;;9.80;95.80
706;BME280;21234;48.690;9.016;2023-03-13T05:57:03;95329.94;;;9.79;95.77
706;BME280;21234;48.690;9.016;2023-03-13T05:59:29;95333.47;;;9.80;96.12
706;BME280;21234;48.690;9.016;2023-03-13T06:01:56;95320.97;;;9.84;95.77
706;BME280;21234;48.690;9.016;2023-03-13T06:04:23;95313.41;;;9.86;95.45
706;BME280;21234;48.690;9.016;2023-03-13T06:06:49;95292.50;;;9.96;94.87
706;BME280;21234;48.690;9.016;2023-03-13T06:09:18;95301.22;;;9.98;94.88
706;BME280;21234;48.690;9.016;2023-03-13T06:11:45;95316.69;;;9.98;94.95
706;BME280;21234;48.690;9.016;2023-03-13T06:14:12;95310.44;;;9.97;95.35
706;BME280;21234;48.690;9.016;2023-03-13T06:16:38;95315.84;;;9.92;95.94
706;BME280;21234;48.690;9.016;2023-03-13T06:19:05;95309.06;;;9.90;96.28
706;BME280;21234;48.690;9.016;2023-03-13T06:21:32;95316.41;;;9.94;96.45
706;BME280;21234;48.690;9.016;2023-03-13T06:23:58;95308.78;;;9.91;96.97
706;BME280;21234;48.690;9.016;2023-03-13T06:26:26;95317.22;;;9.95;97.08
706;BME280;21234;48.690;9.016;2023-03-13T06:28:53;95321.28;;;9.97;97.19
706;BME280;21234;48.690;9.016;2023-03-13T06:31:20;95323.22;;;10.02;96.87
706;BME280;21234;48.690;9.016;2023-03-13T06:33:47;95315.59;;;10.04;97.23
706;BME280;21234;48.690;9.016;2023-03-13T06:36:14;95309.66;;;10.07;97.18
706;BME280;21234;48.690;9.016;2023-03-13T06:38:40;95321.28;;;10.07;97.07
706;BME280;21234;48.690;9.016;2023-03-13T06:41:07;95323.22;;;10.07;96.95
706;BME280;21234;48.690;9.016;2023-03-13T06:43:36;95318.03;;;10.10;96.83
706;BME280;21234;48.690;9.016;2023-03-13T06:46:05;95310.97;;;10.09;96.90
706;BME280;21234;48.690;9.016;2023-03-13T06:48:32;95299.03;;;10.10;97.01
706;BME280;21234;48.690;9.016;2023-03-13T06:50:59;95297.41;;;10.09;97.23
706;BME280;21234;48.690;9.016;2023-03-13T06:53:25;95313.69;;;10.09;97.45
706;BME280;21234;48.690;9.016;2023-03-13T06:55:52;95313.69;;;10.15;97.60
706;BME280;21234;48.690;9.016;2023-03-13T06:58:19;95308.25;;;10.09;98.23
706;BME280;21234;48.690;9.016;2023-03-13T07:00:47;95307.16;;;10.10;98.73
706;BME280;21234;48.690;9.016;2023-03-13T07:03:13;95313.16;;;10.13;98.79
706;BME280;21234;48.690;9.016;2023-03-13T07:05:40;95319.94;;;10.15;98.66
706;BME280;21234;48.690;9.016;2023-03-13T07:08:07;95308.84;;;10.22;98.11
706;BME280;21234;48.690;9.016;2023-03-13T07:10:33;95322.44;;;10.22;98.57
706;BME280;21234;48.690;9.016;2023-03-13T07:13:00;95319.19;;;10.25;98.57
706;BME280;21234;48.690;9.016;2023-03-13T07:15:27;95326.50;;;10.24;98.71
706;BME280;21234;48.690;9.016;2023-03-13T07:17:57;95324.06;;;10.33;98.61
706;BME280;21234;48.690;9.016;2023-03-13T07:20:23;95326.53;;;10.34;98.76
706;BME280;21234;48.690;9.016;2023-03-13T07:22:51;95331.16;;;10.39;98.80
706;BME280;21234;48.690;9.016;2023-03-13T07:25:18;95333.56;;;10.40;98.76
706;BME280;21234;48.690;9.016;2023-03-13T07:27:45;95330.59;;;10.37;98.60
706;BME280;21234;48.690;9.016;2023-03-13T07:30:12;95325.72;;;10.39;98.71
706;BME280;21234;48.690;9.016;2023-03-13T07:32:39;95322.19;;;10.38;98.96
706;BME280;21234;48.690;9.016;2023-03-13T07:35:07;95326.78;;;10.43;98.93
706;BME280;21234;48.690;9.016;2023-03-13T07:37:34;95324.59;;;10.40;98.60
706;BME280;21234;48.690;9.016;2023-03-13T07:40:00;95313.72;;;10.50;97.75
706;BME280;21234;48.690;9.016;2023-03-13T07:42:28;95322.44;;;10.52;97.92
706;BME280;21234;48.690;9.016;2023-03-13T07:44:55;95315.63;;;10.60;97.01
706;BME280;21234;48.690;9.016;2023-03-13T07:47:22;95302.31;;;10.68;96.69
706;BME280;21234;48.690;9.016;2023-03-13T07:49:48;95293.31;;;10.73;96.73
706;BME280;21234;48.690;9.016;2023-03-13T07:52:16;95310.19;;;10.70;96.07
706;BME280;21234;48.690;9.016;2023-03-13T07:54:43;95306.38;;;10.76;96.09
706;BME280;21234;48.690;9.016;2023-03-13T07:57:10;95295.22;;;10.72;96.04
706;BME280;21234;48.690;9.016;2023-03-13T07:59:36;95291.19;;;10.70;96.32
706;BME280;21234;48.690;9.016;2023-03-13T08:02:03;95294.94;;;10.79;96.15
706;BME280;21234;48.690;9.016;2023-03-13T08:04:30;95286.25;;;10.77;95.76
706;BME280;21234;48.690;9.016;2023-03-13T08:06:57;95266.66;;;10.85;95.84
706;BME280;21234;48.690;9.016;2023-03-13T08:09:25;95262.56;;;10.88;95.31
706;BME280;21234;48.690;9.016;2023-03-13T08:11:52;95255.47;;;10.97;94.92
706;BME280;21234;48.690;9.016;2023-03-13T08:14:18;95236.91;;;11.19;93.80
706;BME280;21234;48.690;9.016;2023-03-13T08:16:45;95243.28;;;11.49;92.07
706;BME280;21234;48.690;9.016;2023-03-13T08:19:12;95229.88;;;11.62;90.56
706;BME280;21234;48.690;9.016;2023-03-13T08:21:38;95239.16;;;12.00;88.38
706;BME280;21234;48.690;9.016;2023-03-13T08:24:07;95245.25;;;11.87;88.25
706;BME280;21234;48.690;9.016;2023-03-13T08:26:37;95242.56;;;11.82;88.35
706;BME280;21234;48.690;9.016;2023-03-13T08:29:07;95247.56;;;11.60;89.33
706;BME280;21234;48.690;9.016;2023-03-13T08:31:35;95243.50;;;11.57;89.82
706;BME280;21234;48.690;9.016;2023-03-13T08:34:02;95259.81;;;11.62;89.90
706;BME280;21234;48.690;9.016;2023-03-13T08:36:31;95247.59;;;11.55;90.18
706;BME280;21234;48.690;9.016;2023-03-13T08:38:59;95259.59;;;11.54;89.92
706;BME280;21234;48.690;9.016;2023-03-13T08:41:28;95240.00;;;11.52;89.63
706;BME280;21234;48.690;9.016;2023-03-13T08:43:56;95248.41;;;11.55;89.73
706;BME280;21234;48.690;9.016;2023-03-13T08:46:24;95255.50;;;11.51;89.52
706;BME280;21234;48.690;9.016;2023-03-13T08:48:51;95258.19;;;11.61;89.47
706;BME280;21234;48.690;9.016;2023-03-13T08:51:19;95265.25;;;11.62;89.09
706;BME280;21234;48.690;9.016;2023-03-13T08:53:46;95280.78;;;11.62;88.83
706;BME280;21234;48.690;9.016;2023-03-13T08:56:15;95275.03;;;11.68;88.24
706;BME280;21234;48.690;9.016;2023-03-13T08:58:42;95275.50;;;11.75;88.04
706;BME280;21234;48.690;9.016;2023-03-13T09:01:12;95274.69;;;11.80;87.72
706;BME280;21234;48.690;9.016;2023-03-13T09:03:40;95263.81;;;11.80;87.04
706;BME280;21234;48.690;9.016;2023-03-13T09:06:08;95265.97;;;11.83;87.35
706;BME280;21234;48.690;9.016;2023-03-13T09:08:35;95277.97;;;11.77;86.89
706;BME280;21234;48.690;9.016;2023-03-13T09:11:04;95268.72;;;11.73;87.19
706;BME280;21234;48.690;9.016;2023-03-13T09:13:32;95272.78;;;11.81;87.16
706;BME280;21234;48.690;9.016;2023-03-13T09:16:01;95269.50;;;11.84;87.69
706;BME280;21234;48.690;9.016;2023-03-13T09:18:30;95268.16;;;11.81;87.14
706;BME280;21234;48.690;9.016;2023-03-13T09:20:57;95264.88;;;11.84;87.40
706;BME280;21234;48.690;9.016;2023-03-13T09:23:24;95264.03;;;11.89;87.04
706;BME280;21234;48.690;9.016;2023-03-13T09:25:53;95252.25;;;11.98;86.97
706;BME280;21234;48.690;9.016;2023-03-13T09:28:20;95257.09;;;12.06;86.07
706;BME280;21234;48.690;9.016;2023-03-13T09:30:46;95259.78;;;12.11;85.74
706;BME280;21234;48.690;9.016;2023-03-13T09:33:14;95265.22;;;12.11;85.63
706;BME280;21234;48.690;9.016;2023-03-13T09:35:42;95266.81;;;12.18;84.67
706;BME280;21234;48.690;9.016;2023-03-13T09:38:11;95262.56;;;12.35;84.63
706;BME280;21234;48.690;9.016;2023-03-13T09:40:40;95260.53;;;12.51;83.03
706;BME280;21234;48.690;9.016;2023-03-13T09:43:19;95264.59;;;12.83;82.78
706;BME280;21234;48.690;9.016;2023-03-13T09:45:51;95267.31;;;13.06;79.19
706;BME280;21234;48.690;9.016;2023-03-13T09:48:28;95266.16;;;13.18;78.80
706;BME280;21234;48.690;9.016;2023-03-13T09:51:00;95279.78;;;13.41;76.67
706;BME280;21234;48.690;9.016;2023-03-13T09:53:34;95282.25;;;13.62;76.10
706;BME280;21234;48.690;9.016;2023-03-13T09:56:12;95260.03;;;13.68;74.70
706;BME280;21234;48.690;9.016;2023-03-13T09:58:46;95261.53;;;13.61;74.51
706;BME280;21234;48.690;9.016;2023-03-13T10:01:19;95270.25;;;13.63;74.27
706;BME280;21234;48.690;9.016;2023-03-13T10:03:56;95266.31;;;14.06;72.50
706;BME280;21234;48.690;9.016;2023-03-13T10:06:27;95251.78;;;14.11;71.28
706;BME280;21234;48.690;9.016;2023-03-13T10:08:57;95261.13;;;14.42;70.27
706;BME280;21234;48.690;9.016;2023-03-13T10:11:27;95248.56;;;14.41;69.37
706;BME280;21234;48.690;9.016;2023-03-13T10:13:59;95237.84;;;14.45;69.87
706;BME280;21234;48.690;9.016;2023-03-13T10:16:30;95234.75;;;14.65;69.34
706;BME280;21234;48.690;9.016;2023-03-13T10:19:09;95235.47;;;14.71;68.52
706;BME280;21234;48.690;9.016;2023-03-13T10:21:39;95235.69;;;14.61;67.96
706;BME280;21234;48.690;9.016;2023-03-13T10:24:14;95226.41;;;14.89;67.22
706;BME280;21234;48.690;9.016;2023-03-13T10:26:43;95229.44;;;15.15;66.41
706;BME280;21234;48.690;9.016;2023-03-13T10:29:20;95232.88;;;15.34;65.81
706;BME280;21234;48.690;9.016;2023-03-13T10:31:54;95237.47;;;15.25;66.15
706;BME280;21234;48.690;9.016;2023-03-13T10:34:21;95219.28;;;15.29;66.26
706;BME280;21234;48.690;9.016;2023-03-13T10:36:54;95223.38;;;15.18;66.61
706;BME280;21234;48.690;9.016;2023-03-13T10:39:23;95220.41;;;15.01;66.54
706;BME280;21234;48.690;9.016;2023-03-13T10:41:56;95217.78;;;14.96;66.13
706;BME280;21234;48.690;9.016;2023-03-13T10:44:30;95214.22;;;14.82;66.48
706;BME280;21234;48.690;9.016;2023-03-13T10:46:59;95212.81;;;14.84;66.76
706;BME280;21234;48.690;9.016;2023-03-13T10:49:26;95205.63;;;15.02;67.06
706;BME280;21234;48.690;9.016;2023-03-13T10:51:56;95212.72;;;15.03;66.07
706;BME280;21234;48.690;9.016;2023-03-13T10:54:25;95211.72;;;15.26;65.55
706;BME280;21234;48.690;9.016;2023-03-13T10:57:07;95186.81;;;15.64;65.10
706;BME280;21234;48.690;9.016;2023-03-13T10:59:39;95181.94;;;15.97;63.56
706;BME280;21234;48.690;9.016;2023-03-13T11:02:22;95181.50;;;16.26;62.14
706;BME280;21234;48.690;9.016;2023-03-13T11:04:49;95179.94;;;16.56;61.89
706;BME280;21234;48.690;9.016;2023-03-13T11:07:25;95181.50;;;16.26;61.28
706;BME280;21234;48.690;9.016;2023-03-13T11:10:01;95187.63;;;16.23;61.66
706;BME280;21234;48.690;9.016;2023-03-13T11:12:32;95183.63;;;16.29;61.50
706;BME280;21234;48.690;9.016;2023-03-13T11:15:00;95178.25;;;16.46;60.45
706;BME280;21234;48.690;9.016;2023-03-13T11:17:34;95176.53;;;16.59;59.36
706;BME280;21234;48.690;9.016;2023-03-13T11:20:21;95165.41;;;16.55;59.59
706;BME280;21234;48.690;9.016;2023-03-13T11:22:55;95157.00;;;16.52;59.53
706;BME280;21234;48.690;9.016;2023-03-13T11:25:30;95140.41;;;16.57;59.76
706;BME280;21234;48.690;9.016;2023-03-13T11:28:20;95133.31;;;16.56;59.06
706;BME280;21234;48.690;9.016;2023-03-13T11:30:55;95125.72;;;16.84;59.38
706;BME280;21234;48.690;9.016;2023-03-13T11:33:36;95121.47;;;16.77;58.59
706;BME280;21234;48.690;9.016;2023-03-13T11:36:12;95125.41;;;16.94;58.80
706;BME280;21234;48.690;9.016;2023-03-13T11:38:43;95114.91;;;16.96;58.68
706;BME280;21234;48.690;9.016;2023-03-13T11:41:20;95115.28;;;17.11;58.56
706;BME280;21234;48.690;9.016;2023-03-13T11:44:00;95097.22;;;17.28;58.21
706;BME280;21234;48.690;9.016;2023-03-13T11:46:37;95090.63;;;17.37;56.92
706;BME280;21234;48.690;9.016;2023-03-13T11:49:29;95083.50;;;17.36;56.56
706;BME280;21234;48.690;9.016;2023-03-13T11:52:11;95079.50;;;17.51;56.51
706;BME280;21234;48.690;9.016;2023-03-13T11:55:03;95071.25;;;17.51;56.70
706;BME280;21234;48.690;9.016;2023-03-13T11:57:42;95057.00;;;17.58;55.58
706;BME280;21234;48.690;9.016;2023-03-13T12:00:21;95045.53;;;17.64;55.52
706;BME280;21234;48.690;9.016;2023-03-13T12:02:53;95043.78;;;17.68;56.27
706;BME280;21234;48.690;9.016;2023-03-13T12:05:23;95037.31;;;17.73;55.14
706;BME280;21234;48.690;9.016;2023-03-13T12:07:56;95042.78;;;17.47;55.28
706;BME280;21234;48.690;9.016;2023-03-13T12:10:32;95029.06;;;17.47;54.14
706;BME280;21234;48.690;9.016;2023-03-13T12:13:04;95023.06;;;17.45;54.27
706;BME280;21234;48.690;9.016;2023-03-13T12:15:36;95023.09;;;17.54;53.61
706;BME280;21234;48.690;9.016;2023-03-13T12:18:08;94999.16;;;17.54;53.74
706;BME280;21234;48.690;9.016;2023-03-13T12:20:43;94993.97;;;17.61;53.71
706;BME280;21234;48.690;9.016;2023-03-13T12:23:18;95000.75;;;17.64;53.81
706;BME280;21234;48.690;9.016;2023-03-13T12:25:50;94982.00;;;17.83;52.88
706;BME280;21234;48.690;9.016;2023-03-13T12:28:23;94976.78;;;17.90;53.35
706;BME280;21234;48.690;9.016;2023-03-13T12:30:58;94975.97;;;17.90;52.69
706;BME280;21234;48.690;9.016;2023-03-13T12:33:30;94955.28;;;17.92;52.68
706;BME280;21234;48.690;9.016;2023-03-13T12:36:07;94946.19;;;18.00;52.36
706;BME280;21234;48.690;9.016;2023-03-13T12:38:38;94935.72;;;18.32;51.64
706;BME280;21234;48.690;9.016;2023-03-13T12:41:16;94936.88;;;18.60;50.51
706;BME280;21234;48.690;9.016;2023-03-13T12:43:46;94926.72;;;18.82;50.05
706;BME280;21234;48.690;9.016;2023-03-13T12:46:36;94918.59;;;19.06;49.93
706;BME280;21234;48.690;9.016;2023-03-13T12:49:38;94912.72;;;19.28;48.61
706;BME280;21234;48.690;9.016;2023-03-13T12:52:26;94895.19;;;19.66;47.97
706;BME280;21234;48.690;9.016;2023-03-13T12:55:31;94888.19;;;19.68;47.05
706;BME280;21234;48.690;9.016;2023-03-13T12:58:12;94878.63;;;19.33;48.47
706;BME280;21234;48.690;9.016;2023-03-13T13:00:45;94873.19;;;19.45;47.41
706;BME280;21234;48.690;9.016;2023-03-13T13:03:23;94863.75;;;19.79;46.10
706;BME280;21234;48.690;9.016;2023-03-13T13:06:07;94864.69;;;20.20;45.65
706;BME280;21234;48.690;9.016;2023-03-13T13:08:37;94864.34;;;20.58;45.06
706;BME280;21234;48.690;9.016;2023-03-13T13:17:21;94843.63;;;20.15;45.22
706;BME280;21234;48.690;9.016;2023-03-13T13:19:50;94848.13;;;20.07;44.96
706;BME280;21234;48.690;9.016;2023-03-13T13:22:47;94833.31;;;19.75;45.47
706;BME280;21234;48.690;9.016;2023-03-13T13:25:32;94827.66;;;19.72;45.16
706;BME280;21234;48.690;9.016;2023-03-13T13:28:23;94823.19;;;19.34;46.30
706;BME280;21234;48.690;9.016;2023-03-13T13:30:52;94816.13;;;19.45;46.57
706;BME280;21234;48.690;9.016;2023-03-13T13:33:39;94809.78;;;19.00;46.13
706;BME280;21234;48.690;9.016;2023-03-13T13:36:26;94803.31;;;18.96;47.56
706;BME280;21234;48.690;9.016;2023-03-13T13:38:54;94791.81;;;18.82;47.13
706;BME280;21234;48.690;9.016;2023-03-13T13:41:36;94781.94;;;18.60;47.67
706;BME280;21234;48.690;9.016;2023-03-13T13:44:55;94770.28;;;18.63;47.53
706;BME280;21234;48.690;9.016;2023-03-13T13:47:24;94770.50;;;19.36;46.43
706;BME280;21234;48.690;9.016;2023-03-13T13:49:54;94768.13;;;19.83;44.98